createdAt,value
2022-10-21T00:04:10.473Z,100682.16
2022-10-21T00:06:36.918Z,100678.00
2022-10-21T00:09:03.458Z,100671.72
2022-10-21T00:11:29.991Z,100675.47
2022-10-21T00:13:56.950Z,100666.66
2022-10-21T00:16:23.480Z,100676.03
2022-10-21T00:18:49.904Z,100670.22
2022-10-21T00:21:18.941Z,100666.47
2022-10-21T00:23:45.949Z,100664.47
2022-10-21T00:26:13.410Z,100662.59
2022-10-21T00:28:39.980Z,100670.41
2022-10-21T00:31:08.363Z,100673.03
2022-10-21T00:33:34.783Z,100664.19
2022-10-21T00:36:04.350Z,100664.38
2022-10-21T00:38:32.265Z,100670.97
2022-10-21T00:40:58.899Z,100670.31
2022-10-21T00:43:26.430Z,100660.81
2022-10-21T00:45:58.276Z,100654.22
2022-10-21T00:48:41.434Z,100645.97
2022-10-21T00:51:17.909Z,100647.00
2022-10-21T00:53:46.780Z,100653.19
2022-10-21T00:56:18.585Z,100657.25
2022-10-21T00:58:47.775Z,100659.03
2022-10-21T01:01:17.896Z,100652.91
2022-10-21T01:03:47.258Z,100645.00
2022-10-21T01:06:14.153Z,100648.13
2022-10-21T01:08:40.709Z,100647.34
2022-10-21T01:11:12.144Z,100645.84
2022-10-21T01:14:01.068Z,100649.97
2022-10-21T01:16:36.505Z,100652.69
2022-10-21T01:19:30.842Z,100650.59
2022-10-21T01:22:04.180Z,100638.59
2022-10-21T01:24:56.870Z,100650.13
2022-10-21T01:27:50.769Z,100647.69
2022-10-21T01:30:17.080Z,100648.50
2022-10-21T01:32:47.974Z,100650.78
2022-10-21T01:35:33.405Z,100644.00
2022-10-21T01:38:15.078Z,100629.25
2022-10-21T01:41:04.029Z,100635.91
2022-10-21T01:43:37.730Z,100623.91
2022-10-21T01:46:13.233Z,100615.59
2022-10-21T01:48:43.391Z,100607.44
2022-10-21T01:51:10.098Z,100608.19
2022-10-21T01:53:41.668Z,100601.50
2022-10-21T01:56:09.471Z,100603.25
2022-10-21T01:58:37.530Z,100591.34
2022-10-21T02:01:06.385Z,100592.19
2022-10-21T02:03:36.146Z,100584.22
2022-10-21T02:06:02.979Z,100581.09
2022-10-21T02:08:29.450Z,100578.56
2022-10-21T02:10:58.465Z,100583.66
2022-10-21T02:13:27.225Z,100584.69
2022-10-21T02:15:55.858Z,100578.41
2022-10-21T02:18:25.078Z,100562.81
2022-10-21T02:20:56.313Z,100563.38
2022-10-21T02:23:34.007Z,100562.47
2022-10-21T02:26:00.527Z,100564.50
2022-10-21T02:28:27.060Z,100563.69
2022-10-21T02:30:56.702Z,100544.84
2022-10-21T02:33:31.231Z,100535.66
2022-10-21T02:36:12.717Z,100527.22
2022-10-21T02:38:44.122Z,100518.47
2022-10-21T02:41:12.039Z,100519.50
2022-10-21T02:43:42.242Z,100518.47
2022-10-21T02:46:11.434Z,100524.66
2022-10-21T02:48:39.620Z,100534.91
2022-10-21T02:51:07.377Z,100535.38
2022-10-21T02:53:34.848Z,100519.53
2022-10-21T02:56:01.367Z,100512.03
2022-10-21T02:58:27.999Z,100509.59
2022-10-21T03:00:54.589Z,100513.41
2022-10-21T03:03:21.436Z,100514.47
2022-10-21T03:05:48.173Z,100519.91
2022-10-21T03:08:14.757Z,100505.72
2022-10-21T03:10:41.217Z,100502.25
2022-10-21T03:13:07.703Z,100510.03
2022-10-21T03:15:34.193Z,100515.00
2022-10-21T03:18:00.665Z,100506.09
2022-10-21T03:20:27.142Z,100512.75
2022-10-21T03:22:53.581Z,100495.94
2022-10-21T03:25:20.100Z,100490.84
2022-10-21T03:27:46.573Z,100490.00
2022-10-21T03:30:13.095Z,100484.13
2022-10-21T03:32:39.852Z,100472.94
2022-10-21T03:35:06.993Z,100463.72
2022-10-21T03:37:33.504Z,100461.09
2022-10-21T03:40:00.005Z,100453.41
2022-10-21T03:42:28.290Z,100458.47
2022-10-21T03:44:54.759Z,100462.63
2022-10-21T03:47:21.208Z,100460.75
2022-10-21T03:49:47.849Z,100474.25
2022-10-21T03:52:14.257Z,100468.38
2022-10-21T03:54:40.666Z,100457.94
2022-10-21T03:57:07.089Z,100448.19
2022-10-21T03:59:33.621Z,100469.63
2022-10-21T04:02:00.186Z,100463.47
2022-10-21T04:04:26.711Z,100456.91
2022-10-21T04:06:53.197Z,100452.47
2022-10-21T04:09:19.720Z,100451.22
2022-10-21T04:11:46.345Z,100450.81
2022-10-21T04:14:15.263Z,100458.75
2022-10-21T04:16:42.307Z,100459.59
2022-10-21T04:19:09.052Z,100453.69
2022-10-21T04:21:35.672Z,100447.75
2022-10-21T04:24:02.212Z,100436.13
2022-10-21T04:26:28.627Z,100437.50
2022-10-21T04:28:55.113Z,100444.03
2022-10-21T04:31:21.622Z,100427.56
2022-10-21T04:33:48.246Z,100422.44
2022-10-21T04:36:14.985Z,100415.66
2022-10-21T04:38:41.452Z,100422.34
2022-10-21T04:41:07.951Z,100412.28
2022-10-21T04:43:35.101Z,100416.00
2022-10-21T04:46:01.559Z,100417.44
2022-10-21T04:48:27.988Z,100406.09
2022-10-21T04:50:54.836Z,100408.38
2022-10-21T04:53:22.397Z,100400.50
2022-10-21T04:55:54.768Z,100405.00
2022-10-21T04:58:22.624Z,100402.44
2022-10-21T05:00:50.253Z,100396.19
2022-10-21T05:03:16.985Z,100393.13
2022-10-21T05:05:43.773Z,100384.50
2022-10-21T05:08:11.667Z,100388.72
2022-10-21T05:10:38.526Z,100375.78
2022-10-21T05:13:06.096Z,100381.25
2022-10-21T05:15:33.315Z,100376.66
2022-10-21T05:17:59.723Z,100368.84
2022-10-21T05:20:26.300Z,100359.03
2022-10-21T05:22:53.684Z,100355.16
2022-10-21T05:25:20.869Z,100340.75
2022-10-21T05:27:47.727Z,100336.81
2022-10-21T05:30:14.635Z,100338.50
2022-10-21T05:32:42.093Z,100343.47
2022-10-21T05:35:09.129Z,100341.13
2022-10-21T05:37:35.848Z,100340.19
2022-10-21T05:40:04.300Z,100347.84
2022-10-21T05:42:31.367Z,100339.63
2022-10-21T05:44:58.045Z,100331.47
2022-10-21T05:47:24.941Z,100337.56
2022-10-21T05:49:51.573Z,100345.28
2022-10-21T05:52:18.134Z,100337.97
2022-10-21T05:54:44.742Z,100343.84
2022-10-21T05:57:11.198Z,100337.66
2022-10-21T05:59:37.841Z,100340.38
2022-10-21T06:02:04.351Z,100345.06
2022-10-21T06:04:36.333Z,100347.69
2022-10-21T06:07:05.354Z,100352.59
2022-10-21T06:09:32.663Z,100348.44
2022-10-21T06:11:59.467Z,100341.13
2022-10-21T06:14:27.066Z,100348.25
2022-10-21T06:16:53.492Z,100336.69
2022-10-21T06:19:20.100Z,100338.97
2022-10-21T06:21:48.119Z,100347.69
2022-10-21T06:24:14.863Z,100358.38
2022-10-21T06:26:41.500Z,100354.72
2022-10-21T06:29:08.148Z,100358.59
2022-10-21T06:31:35.021Z,100353.31
2022-10-21T06:34:01.616Z,100353.75
2022-10-21T06:36:28.676Z,100354.81
2022-10-21T06:38:55.433Z,100342.78
2022-10-21T06:41:22.269Z,100346.16
2022-10-21T06:43:48.752Z,100348.22
2022-10-21T06:46:15.623Z,100350.66
2022-10-21T06:48:42.250Z,100349.31
2022-10-21T06:51:20.731Z,100349.63
2022-10-21T06:53:47.983Z,100354.84
2022-10-21T06:56:17.198Z,100352.25
2022-10-21T06:58:47.998Z,100358.16
2022-10-21T07:01:34.273Z,100355.16
2022-10-21T07:04:08.807Z,100363.47
2022-10-21T07:06:35.717Z,100372.22
2022-10-21T07:09:03.170Z,100367.88
2022-10-21T07:11:29.830Z,100364.09
2022-10-21T07:13:56.286Z,100367.25
2022-10-21T07:16:33.129Z,100360.84
2022-10-21T07:18:59.637Z,100366.66
2022-10-21T07:21:29.495Z,100352.53
2022-10-21T07:23:59.414Z,100349.41
2022-10-21T07:26:27.705Z,100337.72
2022-10-21T07:28:55.664Z,100333.28
2022-10-21T07:31:22.298Z,100338.22
2022-10-21T07:33:49.533Z,100334.00
2022-10-21T07:36:23.897Z,100337.56
2022-10-21T07:38:51.744Z,100332.97
2022-10-21T07:41:21.216Z,100341.53
2022-10-21T07:43:48.188Z,100330.53
2022-10-21T07:46:15.546Z,100347.56
2022-10-21T07:48:42.342Z,100337.25
2022-10-21T07:51:11.107Z,100343.66
2022-10-21T07:53:38.570Z,100337.28
2022-10-21T07:56:12.467Z,100328.28
2022-10-21T07:58:39.045Z,100321.25
2022-10-21T08:01:07.246Z,100317.22
2022-10-21T08:03:35.543Z,100305.25
2022-10-21T08:06:02.688Z,100314.44
2022-10-21T08:08:29.427Z,100310.66
2022-10-21T08:10:56.984Z,100309.84
2022-10-21T08:13:23.968Z,100306.03
2022-10-21T08:15:53.311Z,100302.19
2022-10-21T08:18:21.052Z,100308.94
2022-10-21T08:20:49.270Z,100307.00
2022-10-21T08:23:17.065Z,100313.31
2022-10-21T08:25:51.323Z,100315.56
2022-10-21T08:28:18.085Z,100309.38
2022-10-21T08:30:45.002Z,100311.22
2022-10-21T08:33:12.820Z,100298.41
2022-10-21T08:35:39.692Z,100293.63
2022-10-21T08:40:45.770Z,100298.84
2022-10-21T08:43:33.807Z,100297.41
2022-10-21T08:46:06.282Z,100299.69
2022-10-21T08:48:38.655Z,100294.16
2022-10-21T08:51:06.916Z,100284.91
2022-10-21T08:53:38.047Z,100283.47
2022-10-21T08:56:14.587Z,100278.47
2022-10-21T08:58:47.642Z,100273.06
2022-10-21T09:01:33.191Z,100266.00
2022-10-21T09:04:19.098Z,100260.56
2022-10-21T09:06:58.641Z,100263.22
2022-10-21T09:09:35.143Z,100249.28
2022-10-21T09:12:13.453Z,100243.41
2022-10-21T09:14:54.463Z,100239.22
2022-10-21T09:17:42.787Z,100239.16
2022-10-21T09:20:27.437Z,100230.41
2022-10-21T09:23:17.052Z,100230.53
2022-10-21T09:26:04.668Z,100235.88
2022-10-21T09:28:32.435Z,100236.25
2022-10-21T09:31:01.153Z,100241.19
2022-10-21T09:33:30.774Z,100241.75
2022-10-21T09:36:07.172Z,100241.50
2022-10-21T09:38:55.801Z,100234.28
2022-10-21T09:41:30.586Z,100221.94
2022-10-21T09:43:57.152Z,100219.75
2022-10-21T09:46:23.849Z,100229.88
2022-10-21T09:49:36.793Z,100234.47
2022-10-21T09:51:40.544Z,100222.31
2022-10-21T09:54:22.749Z,100214.97
2022-10-21T09:56:57.132Z,100216.97
2022-10-21T09:59:29.063Z,100216.84
2022-10-21T10:02:07.016Z,100214.53
2022-10-21T10:04:35.413Z,100207.31
2022-10-21T10:07:26.717Z,100211.34
2022-10-21T10:09:53.248Z,100206.75
2022-10-21T10:12:24.961Z,100205.94
2022-10-21T10:14:51.808Z,100209.81
2022-10-21T10:17:32.132Z,100199.63
2022-10-21T10:20:04.519Z,100188.34
2022-10-21T10:22:32.749Z,100189.47
2022-10-21T10:25:12.219Z,100184.69
2022-10-21T10:28:07.731Z,100183.84
2022-10-21T10:30:45.457Z,100180.91
2022-10-21T10:33:25.351Z,100177.41
2022-10-21T10:35:53.685Z,100176.50
2022-10-21T10:38:38.352Z,100173.09
2022-10-21T10:41:15.995Z,100168.22
2022-10-21T10:43:54.397Z,100161.28
2022-10-21T10:46:34.258Z,100153.38
2022-10-21T10:49:17.629Z,100154.97
2022-10-21T10:51:46.748Z,100142.97
2022-10-21T10:54:17.858Z,100149.16
2022-10-21T10:56:59.779Z,100139.41
2022-10-21T10:59:32.841Z,100125.97
2022-10-21T11:02:16.665Z,100118.47
2022-10-21T11:05:08.946Z,100120.94
2022-10-21T11:07:51.029Z,100113.19
2022-10-21T11:10:27.713Z,100110.84
2022-10-21T11:12:54.429Z,100115.44
2022-10-21T11:15:25.949Z,100100.88
2022-10-21T11:18:07.454Z,100101.28
2022-10-21T11:20:51.754Z,100106.16
2022-10-21T11:23:26.948Z,100092.16
2022-10-21T11:26:03.537Z,100100.63
2022-10-21T11:28:34.783Z,100109.91
2022-10-21T11:31:07.047Z,100105.03
2022-10-21T11:33:46.518Z,100104.63
2022-10-21T11:36:25.152Z,100093.94
2022-10-21T11:39:17.231Z,100079.97
2022-10-21T11:41:50.698Z,100080.78
2022-10-21T11:44:40.013Z,100077.03
2022-10-21T11:47:25.872Z,100058.19
2022-10-21T11:50:04.316Z,100056.19
2022-10-21T11:53:12.057Z,100058.78
2022-10-21T11:55:58.549Z,100066.13
2022-10-21T11:58:59.554Z,100060.13
2022-10-21T12:01:32.973Z,100056.03
2022-10-21T12:04:17.422Z,100054.28
2022-10-21T12:07:14.354Z,100062.34
2022-10-21T12:09:49.676Z,100060.72
2022-10-21T12:12:18.589Z,100059.72
2022-10-21T12:14:58.168Z,100051.44
2022-10-21T12:17:25.616Z,100045.13
2022-10-21T12:19:57.001Z,100043.06
2022-10-21T12:22:25.074Z,100033.78
2022-10-21T12:25:13.370Z,100037.72
2022-10-21T12:27:42.121Z,100022.72
2022-10-21T12:30:23.357Z,100028.78
2022-10-21T12:33:08.313Z,100025.19
2022-10-21T12:35:55.272Z,100030.94
2022-10-21T12:38:26.404Z,100025.56
2022-10-21T12:41:23.837Z,100013.34
2022-10-21T12:43:59.399Z,100006.84
2022-10-21T12:46:46.524Z,100012.91
2022-10-21T12:49:33.634Z,100012.16
2022-10-21T12:52:03.005Z,100001.66
2022-10-21T12:54:32.179Z,99998.56
2022-10-21T12:57:01.754Z,100001.53
2022-10-21T12:59:36.551Z,99994.91
2022-10-21T13:02:05.632Z,100003.69
2022-10-21T13:04:32.391Z,100004.06
2022-10-21T13:07:00.112Z,99996.16
2022-10-21T13:09:51.043Z,100002.16
2022-10-21T13:12:17.360Z,100009.69
2022-10-21T13:14:47.912Z,100008.34
2022-10-21T13:17:24.590Z,100006.03
2022-10-21T13:20:16.095Z,100009.69
2022-10-21T13:22:47.053Z,100000.78
2022-10-21T13:25:16.101Z,100001.09
2022-10-21T13:27:45.163Z,99999.09
2022-10-21T13:30:35.942Z,99989.13
2022-10-21T13:33:07.021Z,99990.69
2022-10-21T13:35:54.451Z,99995.31
2022-10-21T13:38:23.045Z,99981.59
2022-10-21T13:40:55.971Z,99974.63
2022-10-21T13:43:30.898Z,99965.38
2022-10-21T13:46:10.201Z,99962.72
2022-10-21T13:48:41.812Z,99963.94
2022-10-21T13:51:18.338Z,99964.94
2022-10-21T13:53:48.103Z,99965.75
2022-10-21T13:56:23.890Z,99954.44
2022-10-21T13:58:51.043Z,99955.44
2022-10-21T14:01:21.947Z,99953.63
2022-10-21T14:06:20.672Z,99937.31
2022-10-21T14:08:47.671Z,99929.59
2022-10-21T14:11:21.108Z,99932.94
2022-10-21T14:13:48.630Z,99918.66
2022-10-21T14:16:32.406Z,99916.91
2022-10-21T14:18:59.924Z,99914.69
2022-10-21T14:21:28.041Z,99918.59
2022-10-21T14:23:54.667Z,99916.81
2022-10-21T14:26:21.338Z,99917.66
2022-10-21T14:28:49.508Z,99913.41
2022-10-21T14:31:16.125Z,99906.16
2022-10-21T14:33:45.425Z,99911.97
2022-10-21T14:36:18.729Z,99901.28
2022-10-21T14:38:58.784Z,99910.31
2022-10-21T14:41:37.657Z,99903.63
2022-10-21T14:44:25.368Z,99910.56
2022-10-21T14:46:53.926Z,99899.63
2022-10-21T14:49:27.732Z,99908.03
2022-10-21T14:52:00.174Z,99906.41
2022-10-21T14:54:49.577Z,99911.53
2022-10-21T14:57:26.757Z,99911.00
2022-10-21T14:59:53.369Z,99911.59
2022-10-21T15:02:23.170Z,99908.94
2022-10-21T15:04:52.922Z,99904.84
2022-10-21T15:07:29.818Z,99900.22
2022-10-21T15:10:04.353Z,99905.28
2022-10-21T15:12:45.681Z,99900.53
2022-10-21T15:15:40.288Z,99899.69
2022-10-21T15:18:23.301Z,99904.31
2022-10-21T15:20:57.481Z,99905.28
2022-10-21T15:23:48.917Z,99910.81
2022-10-21T15:26:21.471Z,99908.59
2022-10-21T15:28:48.164Z,99907.75
2022-10-21T15:31:24.100Z,99905.66
2022-10-21T15:33:52.934Z,99908.16
2022-10-21T15:36:19.489Z,99898.81
2022-10-21T15:38:46.978Z,99898.81
2022-10-21T15:41:15.983Z,99887.00
2022-10-21T15:43:43.667Z,99871.94
2022-10-21T15:46:11.922Z,99867.66
2022-10-21T15:48:38.679Z,99866.22
2022-10-21T15:51:05.206Z,99852.44
2022-10-21T15:53:32.556Z,99851.31
2022-10-21T15:56:01.057Z,99846.00
2022-10-21T15:58:27.727Z,99844.09
2022-10-21T16:00:54.235Z,99851.94
2022-10-21T16:03:20.864Z,99863.66
2022-10-21T16:05:47.471Z,99869.81
2022-10-21T16:08:13.943Z,99873.31
2022-10-21T16:10:47.684Z,99876.94
2022-10-21T16:13:15.161Z,99873.16
2022-10-21T16:15:41.730Z,99876.88
2022-10-21T16:18:13.369Z,99869.53
2022-10-21T16:20:41.576Z,99874.84
2022-10-21T16:23:09.516Z,99885.44
2022-10-21T16:25:36.369Z,99886.56
2022-10-21T16:28:03.421Z,99890.50
2022-10-21T16:30:34.568Z,99899.28
2022-10-21T16:33:01.237Z,99889.09
2022-10-21T16:35:28.024Z,99894.53
2022-10-21T16:37:56.124Z,99873.88
2022-10-21T16:40:33.219Z,99893.00
2022-10-21T16:42:59.873Z,99883.25
2022-10-21T16:45:34.961Z,99886.06
2022-10-21T16:48:03.897Z,99895.81
2022-10-21T16:50:40.934Z,99894.69
2022-10-21T16:53:17.130Z,99890.53
2022-10-21T16:55:43.823Z,99893.03
2022-10-21T16:58:10.420Z,99895.56
2022-10-21T17:00:37.024Z,99886.91
2022-10-21T17:03:04.062Z,99889.00
2022-10-21T17:05:31.315Z,99893.56
2022-10-21T17:07:59.929Z,99890.94
2022-10-21T17:10:26.535Z,99893.88
2022-10-21T17:12:58.676Z,99890.78
2022-10-21T17:15:25.984Z,99883.25
2022-10-21T17:17:52.807Z,99887.59
2022-10-21T17:20:19.570Z,99880.78
2022-10-21T17:22:46.802Z,99875.75
2022-10-21T17:25:13.577Z,99871.88
2022-10-21T17:27:40.385Z,99871.28
2022-10-21T17:30:07.806Z,99863.75
2022-10-21T17:32:35.162Z,99863.34
2022-10-21T17:35:01.684Z,99864.34
2022-10-21T17:37:28.096Z,99857.53
2022-10-21T17:39:54.688Z,99855.28
2022-10-21T17:42:21.244Z,99837.31
2022-10-21T17:44:48.016Z,99839.97
2022-10-21T17:47:15.147Z,99833.66
2022-10-21T17:49:42.033Z,99823.22
2022-10-21T17:52:09.550Z,99822.84
2022-10-21T17:54:36.499Z,99822.00
2022-10-21T17:57:03.571Z,99814.06
2022-10-21T17:59:32.612Z,99820.63
2022-10-21T18:01:59.885Z,99821.84
2022-10-21T18:04:26.561Z,99815.97
2022-10-21T18:06:53.073Z,99807.06
2022-10-21T18:09:19.927Z,99814.75
2022-10-21T18:11:46.504Z,99808.19
2022-10-21T18:14:14.220Z,99789.94
2022-10-21T18:16:41.294Z,99784.34
2022-10-21T18:19:07.961Z,99797.19
2022-10-21T18:21:34.550Z,99794.25
2022-10-21T18:24:01.261Z,99796.22
2022-10-21T18:26:29.520Z,99792.72
2022-10-21T18:28:58.029Z,99781.00
2022-10-21T18:31:28.122Z,99789.75
2022-10-21T18:33:55.846Z,99790.47
2022-10-21T18:36:23.479Z,99789.66
2022-10-21T18:38:50.126Z,99792.88
2022-10-21T18:41:20.494Z,99784.06
2022-10-21T18:43:49.523Z,99783.78
2022-10-21T18:46:16.713Z,99792.00
2022-10-21T18:48:43.432Z,99779.03
2022-10-21T18:51:11.422Z,99776.06
2022-10-21T18:53:39.150Z,99779.84
2022-10-21T18:56:07.578Z,99777.50
2022-10-21T18:58:34.937Z,99781.16
2022-10-21T19:01:01.583Z,99772.78
2022-10-21T19:03:28.187Z,99765.25
2022-10-21T19:05:55.101Z,99769.84
2022-10-21T19:08:22.241Z,99771.22
2022-10-21T19:10:48.808Z,99771.69
2022-10-21T19:13:15.375Z,99773.59
2022-10-21T19:15:42.449Z,99764.25
2022-10-21T19:18:12.420Z,99766.50
2022-10-21T19:20:40.247Z,99763.03
2022-10-21T19:23:07.892Z,99762.19
2022-10-21T19:25:34.802Z,99761.59
2022-10-21T19:28:01.244Z,99756.06
2022-10-21T19:30:27.904Z,99751.00
2022-10-21T19:32:54.544Z,99746.72
2022-10-21T19:35:20.983Z,99752.97
2022-10-21T19:37:47.401Z,99752.00
2022-10-21T19:40:13.844Z,99755.78
2022-10-21T19:42:41.266Z,99758.16
2022-10-21T19:45:09.595Z,99753.56
2022-10-21T19:47:36.623Z,99751.47
2022-10-21T19:50:03.217Z,99753.28
2022-10-21T19:52:29.687Z,99747.84
2022-10-21T19:54:56.140Z,99742.16
2022-10-21T19:57:22.608Z,99739.19
2022-10-21T19:59:49.102Z,99746.44
2022-10-21T20:02:15.561Z,99738.34
2022-10-21T20:04:41.989Z,99747.56
2022-10-21T20:07:08.499Z,99737.75
2022-10-21T20:09:37.975Z,99741.94
2022-10-21T20:12:05.443Z,99737.63
2022-10-21T20:14:33.053Z,99743.19
2022-10-21T20:16:59.512Z,99744.72
2022-10-21T20:19:26.240Z,99737.84
2022-10-21T20:21:52.645Z,99731.03
2022-10-21T20:24:19.157Z,99727.69
2022-10-21T20:26:49.021Z,99733.38
2022-10-21T20:29:15.586Z,99735.94
2022-10-21T20:31:42.333Z,99739.31
2022-10-21T20:34:12.209Z,99736.13
2022-10-21T20:36:38.869Z,99740.31
2022-10-21T20:39:05.586Z,99734.09
2022-10-21T20:41:34.610Z,99739.19
2022-10-21T20:44:02.156Z,99737.81
2022-10-21T20:46:32.389Z,99738.88
2022-10-21T20:48:59.176Z,99729.53
2022-10-21T20:51:29.018Z,99726.50
2022-10-21T20:53:58.326Z,99724.84
2022-10-21T20:56:29.819Z,99730.72
2022-10-21T20:58:56.796Z,99727.72
2022-10-21T21:01:25.707Z,99715.41
2022-10-21T21:03:59.049Z,99720.31
2022-10-21T21:06:26.148Z,99716.56
2022-10-21T21:09:22.209Z,99717.31
2022-10-21T21:11:39.470Z,99714.22
2022-10-21T21:14:06.119Z,99711.97
2022-10-21T21:16:32.856Z,99713.97
2022-10-21T21:19:04.505Z,99718.44
2022-10-21T21:21:33.991Z,99714.50
2022-10-21T21:24:01.045Z,99724.44
2022-10-21T21:26:33.001Z,99719.13
2022-10-21T21:29:00.481Z,99709.91
2022-10-21T21:31:28.234Z,99715.19
2022-10-21T21:33:55.396Z,99708.53
2022-10-21T21:36:22.306Z,99709.97
2022-10-21T21:38:50.301Z,99711.31
2022-10-21T21:41:17.489Z,99710.19
2022-10-21T21:43:47.928Z,99705.97
2022-10-21T21:46:22.742Z,99707.44
2022-10-21T21:48:54.177Z,99701.56
2022-10-21T21:51:23.400Z,99704.72
2022-10-21T21:53:50.451Z,99703.25
2022-10-21T21:56:19.236Z,99698.34
2022-10-21T21:58:47.800Z,99705.19
2022-10-21T22:01:16.846Z,99694.81
2022-10-21T22:03:43.620Z,99697.22
2022-10-21T22:06:10.665Z,99697.09
2022-10-21T22:08:40.260Z,99694.03
2022-10-21T22:11:13.284Z,99698.59
2022-10-21T22:13:40.498Z,99702.75
2022-10-21T22:16:08.896Z,99705.09
2022-10-21T22:18:36.088Z,99702.06
2022-10-21T22:21:05.240Z,99700.00
2022-10-21T22:23:32.200Z,99696.78
2022-10-21T22:25:58.994Z,99697.38
2022-10-21T22:28:25.982Z,99697.03
2022-10-21T22:31:03.880Z,99694.00
2022-10-21T22:33:31.128Z,99694.13
2022-10-21T22:35:57.637Z,99696.34
2022-10-21T22:38:24.263Z,99691.47
2022-10-21T22:40:54.379Z,99692.22
2022-10-21T22:43:21.658Z,99690.03
2022-10-21T22:45:48.314Z,99680.88
2022-10-21T22:48:15.471Z,99671.75
2022-10-21T22:50:41.967Z,99668.88
2022-10-21T22:53:09.349Z,99675.84
2022-10-21T22:55:36.256Z,99681.44
2022-10-21T22:58:02.679Z,99676.84
2022-10-21T23:00:29.135Z,99670.97
2022-10-21T23:02:55.557Z,99671.41
2022-10-21T23:05:22.850Z,99676.53
2022-10-21T23:07:49.364Z,99671.97
2022-10-21T23:10:15.942Z,99685.97
2022-10-21T23:12:42.732Z,99684.84
2022-10-21T23:15:09.979Z,99687.34
2022-10-21T23:17:36.387Z,99677.75
2022-10-21T23:20:03.023Z,99672.97
2022-10-21T23:22:29.535Z,99684.09
2022-10-21T23:24:56.104Z,99680.38
2022-10-21T23:27:22.524Z,99678.41
2022-10-21T23:29:48.944Z,99671.97
2022-10-21T23:32:15.369Z,99666.81
2022-10-21T23:34:41.825Z,99662.81
2022-10-21T23:37:08.536Z,99655.66
2022-10-21T23:39:35.234Z,99664.97
2022-10-21T23:42:01.741Z,99662.16
2022-10-21T23:44:29.409Z,99659.94
2022-10-21T23:46:56.852Z,99655.75
2022-10-21T23:49:23.513Z,99651.81
2022-10-21T23:51:50.228Z,99650.66
2022-10-21T23:54:16.712Z,99643.59
2022-10-21T23:56:43.301Z,99636.81
2022-10-21T23:59:09.777Z,99633.13
